Time;durP1;ratioP1;P1;durP2;ratioP2;P2;SDS_P1;SDS_P2;PMS_P1;PMS_P2;Temp;Humidity;BMP_temperature;BMP_pressure;BME280_temperature;BME280_humidity;BME280_pressure;Samples;Min_cycle;Max_cycle;Signal;HPM_P1;HPM_P2
2021/01/01 00:00:08;;;;;;;7.30;5.73;;;2.50;99.90;;;;;;5076161;28;20460;-85
2021/01/01 00:02:35;;;;;;;12.17;8.33;;;2.50;99.90;;;;;;5075113;28;20461;-91
2021/01/01 00:05:01;;;;;;;10.03;7.07;;;2.60;99.90;;;;;;5073516;28;20928;-87
2021/01/01 00:07:28;;;;;;;9.33;6.10;;;2.50;99.90;;;;;;5072570;28;20901;-87
2021/01/01 00:09:55;;;;;;;6.53;4.37;;;2.60;99.90;;;;;;5064451;28;20452;-87
2021/01/01 00:12:21;;;;;;;9.30;6.80;;;2.60;99.90;;;;;;5064673;28;20449;-89
2021/01/01 00:14:47;;;;;;;11.17;6.20;;;2.20;99.90;;;;;;5070360;28;20446;-87
2021/01/01 00:17:14;;;;;;;8.67;5.63;;;2.30;99.90;;;;;;5064938;28;20443;-87
2021/01/01 00:19:46;;;;;;;8.90;6.40;;;2.40;99.90;;;;;;5063616;28;20445;-87
2021/01/01 00:22:12;;;;;;;11.33;7.33;;;;;;;;;;5061219;28;20811;-86
2021/01/01 00:24:39;;;;;;;8.87;7.07;;;;;;;;;;5066980;28;20457;-89
2021/01/01 00:27:06;;;;;;;9.87;7.13;;;2.10;99.90;;;;;;5066031;28;20449;-89
2021/01/01 00:29:32;;;;;;;10.63;7.40;;;2.40;99.90;;;;;;5063309;28;20434;-88
2021/01/01 00:31:59;;;;;;;9.50;6.50;;;2.60;99.90;;;;;;5055799;28;20494;-89
2021/01/01 00:34:26;;;;;;;8.73;6.50;;;2.40;99.90;;;;;;5054316;28;20519;-89
2021/01/01 00:36:52;;;;;;;10.03;7.37;;;2.40;99.90;;;;;;5052251;28;20834;-88
2021/01/01 00:39:19;;;;;;;9.83;7.03;;;;;;;;;;5055200;28;20454;-88
2021/01/01 00:41:45;;;;;;;9.40;6.57;;;;;;;;;;5055526;28;20952;-87
2021/01/01 00:44:12;;;;;;;10.30;6.63;;;;;;;;;;5055156;28;20462;-87
2021/01/01 00:46:38;;;;;;;8.80;6.27;;;2.40;99.90;;;;;;5055427;28;20447;-87
2021/01/01 00:49:04;;;;;;;9.60;6.87;;;2.30;99.90;;;;;;5054154;28;20521;-87
2021/01/01 00:51:32;;;;;;;8.70;6.57;;;2.10;99.90;;;;;;5055113;28;20567;-88
2021/01/01 00:54:00;;;;;;;10.20;7.53;;;2.10;99.90;;;;;;5055252;28;20441;-86
2021/01/01 00:56:27;;;;;;;8.80;6.10;;;1.90;99.90;;;;;;5063257;28;20444;-89
2021/01/01 00:58:58;;;;;;;13.53;7.70;;;2.10;99.90;;;;;;5065126;28;20811;-88
2021/01/01 01:01:25;;;;;;;12.47;6.93;;;2.20;99.90;;;;;;5064379;28;20528;-88
2021/01/01 01:03:53;;;;;;;11.77;8.10;;;2.40;99.90;;;;;;5061406;28;20450;-86
2021/01/01 01:06:20;;;;;;;10.07;7.23;;;;;;;;;;5064341;28;20449;-87
2021/01/01 01:08:47;;;;;;;9.07;6.40;;;2.20;99.90;;;;;;5064783;28;20445;-86
2021/01/01 01:11:14;;;;;;;12.50;7.63;;;2.10;99.90;;;;;;5063082;28;20889;-88
2021/01/01 01:13:41;;;;;;;10.40;7.93;;;;;;;;;;5064066;28;20485;-87
2021/01/01 01:16:07;;;;;;;7.60;5.13;;;;;;;;;;5064962;28;20849;-87
2021/01/01 01:18:34;;;;;;;8.50;6.63;;;2.80;99.90;;;;;;5058457;28;20449;-87
2021/01/01 01:21:00;;;;;;;8.53;5.50;;;2.10;99.90;;;;;;5062212;28;20460;-85
2021/01/01 01:23:26;;;;;;;4.20;3.10;;;;;;;;;;5064561;28;20446;-87
2021/01/01 01:25:53;;;;;;;11.20;7.40;;;1.80;99.90;;;;;;5062411;28;20466;-87
2021/01/01 01:28:20;;;;;;;6.20;5.13;;;2.40;99.90;;;;;;5065520;28;20450;-87
2021/01/01 01:30:50;;;;;;;10.67;7.83;;;1.90;99.90;;;;;;5065464;28;20483;-86
2021/01/01 01:33:17;;;;;;;9.57;7.47;;;;;;;;;;5064786;28;20498;-87
2021/01/01 01:35:43;;;;;;;11.23;6.47;;;2.40;99.90;;;;;;5066141;28;20955;-91
2021/01/01 01:38:10;;;;;;;11.30;7.57;;;;;;;;;;5063945;28;20437;-88
2021/01/01 01:40:37;;;;;;;4.97;3.63;;;2.10;99.90;;;;;;5061796;28;20495;-88
2021/01/01 01:43:04;;;;;;;12.23;8.40;;;2.20;99.90;;;;;;5063850;28;20435;-87
2021/01/01 01:45:33;;;;;;;9.57;7.87;;;2.20;99.90;;;;;;5058902;28;20952;-89
2021/01/01 01:48:00;;;;;;;11.03;8.07;;;2.20;99.90;;;;;;5060615;28;20446;-88
2021/01/01 01:50:27;;;;;;;9.80;7.77;;;2.20;99.90;;;;;;5061547;28;20849;-90
2021/01/01 01:52:54;;;;;;;11.53;8.90;;;2.10;99.90;;;;;;5061801;28;20450;-89
2021/01/01 01:55:20;;;;;;;11.97;8.70;;;2.30;99.90;;;;;;5055639;28;20806;-86
2021/01/01 01:57:47;;;;;;;12.60;9.57;;;;;;;;;;5060924;28;20444;-87
2021/01/01 02:00:38;;;;;;;13.40;9.57;;;2.10;99.90;;;;;;5058707;28;20446;-86
2021/01/01 02:03:04;;;;;;;15.73;9.67;;;;;;;;;;5063850;28;20477;-88
2021/01/01 02:05:31;;;;;;;14.00;10.07;;;;;;;;;;5061557;28;20969;-86
2021/01/01 02:07:57;;;;;;;12.17;8.77;;;;;;;;;;5065266;28;20963;-86
2021/01/01 02:10:24;;;;;;;15.30;10.17;;;2.10;99.90;;;;;;5064529;28;20490;-87
2021/01/01 02:12:53;;;;;;;11.63;8.10;;;2.50;99.90;;;;;;5061657;28;20456;-87
2021/01/01 02:15:20;;;;;;;12.37;8.23;;;2.20;99.90;;;;;;5067489;28;20442;-87
2021/01/01 02:17:47;;;;;;;14.00;10.10;;;2.20;99.90;;;;;;5060705;28;20505;-86
2021/01/01 02:20:14;;;;;;;14.37;9.17;;;2.30;99.90;;;;;;5060772;28;20937;-89
2021/01/01 02:22:41;;;;;;;15.37;9.50;;;2.20;99.90;;;;;;5057725;28;21110;-87
2021/01/01 02:25:10;;;;;;;14.43;10.23;;;2.40;99.90;;;;;;5064269;28;20831;-88
2021/01/01 02:27:37;;;;;;;15.07;9.73;;;2.50;99.90;;;;;;5059432;28;20500;-87
2021/01/01 02:30:04;;;;;;;16.23;10.80;;;2.40;99.90;;;;;;5059143;28;20451;-87
2021/01/01 02:32:31;;;;;;;14.00;9.37;;;;;;;;;;5058941;28;20500;-86
2021/01/01 02:34:57;;;;;;;13.40;8.53;;;;;;;;;;5063116;28;20464;-90
2021/01/01 02:37:24;;;;;;;11.97;8.53;;;2.00;99.90;;;;;;5060106;28;20438;-87
2021/01/01 02:39:51;;;;;;;14.70;9.47;;;1.90;99.90;;;;;;5064242;28;20966;-87
2021/01/01 02:42:17;;;;;;;13.27;9.90;;;2.20;99.90;;;;;;5064170;28;20793;-87
2021/01/01 02:44:44;;;;;;;16.50;10.90;;;2.20;99.90;;;;;;5064190;28;20454;-88
2021/01/01 02:47:10;;;;;;;13.70;8.83;;;;;;;;;;5050454;28;20439;-88
2021/01/01 02:49:37;;;;;;;14.20;9.47;;;2.30;99.90;;;;;;5063108;28;20471;-87
2021/01/01 02:52:03;;;;;;;15.00;10.23;;;;;;;;;;5064128;28;20513;-86
2021/01/01 02:54:30;;;;;;;12.57;9.50;;;2.30;99.90;;;;;;5063998;28;20449;-88
2021/01/01 02:56:57;;;;;;;15.83;10.77;;;3.10;99.90;;;;;;5064192;28;20443;-87
2021/01/01 02:59:23;;;;;;;13.10;9.40;;;;;;;;;;5062063;28;20442;-87
2021/01/01 03:01:51;;;;;;;17.77;11.80;;;2.20;99.90;;;;;;5052490;28;20458;-86
2021/01/01 03:04:17;;;;;;;16.50;11.33;;;;;;;;;;5061735;28;20445;-88
2021/01/01 03:06:44;;;;;;;14.90;10.60;;;2.10;99.90;;;;;;5062535;28;20446;-86
2021/01/01 03:09:10;;;;;;;16.70;11.33;;;;;;;;;;5060886;28;20446;-87
2021/01/01 03:11:37;;;;;;;15.17;10.97;;;;;;;;;;5061428;28;20489;-86
2021/01/01 03:14:04;;;;;;;16.00;11.00;;;2.30;99.90;;;;;;5061802;28;20460;-88
2021/01/01 03:16:33;;;;;;;13.40;10.17;;;2.20;99.90;;;;;;5063121;28;20941;-87
2021/01/01 03:19:00;;;;;;;17.83;11.00;;;2.80;99.90;;;;;;5060788;28;20435;-86
2021/01/01 03:21:26;;;;;;;15.27;10.33;;;2.00;99.90;;;;;;5061381;28;20441;-85
2021/01/01 03:23:52;;;;;;;15.00;11.53;;;2.10;99.90;;;;;;5060765;28;20489;-86
2021/01/01 03:26:21;;;;;;;18.77;12.07;;;2.40;99.90;;;;;;5062000;28;20474;-86
2021/01/01 03:28:47;;;;;;;17.73;11.87;;;2.00;99.90;;;;;;5062952;28;20794;-88
2021/01/01 03:31:15;;;;;;;16.40;11.97;;;2.40;99.90;;;;;;5060888;28;20849;-90
2021/01/01 03:33:41;;;;;;;15.73;11.30;;;;;;;;;;5063003;28;21042;-89
2021/01/01 03:36:11;;;;;;;15.40;11.00;;;2.30;99.90;;;;;;5063910;28;20456;-90
2021/01/01 03:38:43;;;;;;;17.90;12.77;;;2.20;99.90;;;;;;5061729;28;20450;-88
2021/01/01 03:41:09;;;;;;;15.90;12.73;;;;;;;;;;5063859;28;21838;-87
2021/01/01 03:43:35;;;;;;;18.53;12.80;;;2.10;99.90;;;;;;5057623;28;20450;-90
2021/01/01 03:46:02;;;;;;;18.10;12.17;;;2.20;99.90;;;;;;5062345;28;20450;-88
2021/01/01 03:48:29;;;;;;;14.70;11.47;;;2.10;99.90;;;;;;5060093;28;20451;-88
2021/01/01 03:50:55;;;;;;;17.53;11.73;;;2.40;99.90;;;;;;5063190;28;21131;-86
2021/01/01 03:53:21;;;;;;;15.47;11.80;;;2.20;99.90;;;;;;5057045;28;20573;-88
2021/01/01 03:55:48;;;;;;;17.43;11.57;;;;;;;;;;5061752;28;20444;-86
2021/01/01 03:58:15;;;;;;;17.47;12.60;;;;;;;;;;5052278;28;20545;-86
2021/01/01 04:00:41;;;;;;;15.17;11.90;;;2.00;99.90;;;;;;5052520;28;20943;-90
2021/01/01 04:03:08;;;;;;;18.97;12.70;;;;;;;;;;5054717;28;20443;-87
2021/01/01 04:05:35;;;;;;;14.83;12.23;;;2.00;99.90;;;;;;5055718;28;20450;-90
2021/01/01 04:08:02;;;;;;;16.80;12.63;;;2.10;99.90;;;;;;5055752;28;20473;-88
2021/01/01 04:10:28;;;;;;;18.40;12.13;;;;;;;;;;5055713;28;20451;-86
2021/01/01 04:12:55;;;;;;;16.13;12.53;;;;;;;;;;5055747;28;20445;-87
2021/01/01 04:15:21;;;;;;;16.77;11.53;;;;;;;;;;5055645;28;20816;-87
2021/01/01 04:17:48;;;;;;;20.77;12.37;;;;;;;;;;5054425;28;20514;-87
2021/01/01 04:20:14;;;;;;;16.73;12.13;;;2.10;99.90;;;;;;5055608;28;20445;-86
2021/01/01 04:22:41;;;;;;;17.83;13.00;;;1.90;99.90;;;;;;5055432;28;20470;-86
2021/01/01 04:25:09;;;;;;;16.30;12.03;;;2.00;99.90;;;;;;5055468;28;20475;-86
2021/01/01 04:27:35;;;;;;;21.60;12.63;;;1.70;99.90;;;;;;5055410;28;20456;-88
2021/01/01 04:30:02;;;;;;;18.00;12.50;;;1.40;99.90;;;;;;5052474;28;20803;-86
2021/01/01 04:32:29;;;;;;;18.20;12.43;;;;;;;;;;5053810;28;20499;-87
2021/01/01 04:34:56;;;;;;;16.07;12.33;;;1.70;99.90;;;;;;5055142;28;20966;-86
2021/01/01 04:37:23;;;;;;;19.07;12.73;;;;;;;;;;5055307;28;20454;-86
2021/01/01 04:39:50;;;;;;;17.60;12.30;;;1.80;99.90;;;;;;5046980;28;20969;-87
2021/01/01 04:42:18;;;;;;;18.70;12.43;;;1.90;99.90;;;;;;5055126;28;20444;-86
2021/01/01 04:44:44;;;;;;;19.13;13.03;;;1.70;99.90;;;;;;5055173;28;20446;-89
2021/01/01 04:47:13;;;;;;;20.00;12.23;;;1.90;99.90;;;;;;5054963;28;20447;-86
2021/01/01 04:49:40;;;;;;;17.40;12.83;;;2.00;99.90;;;;;;5053812;28;20453;-89
2021/01/01 04:52:09;;;;;;;18.60;12.03;;;1.80;99.90;;;;;;5054873;28;20497;-89
2021/01/01 04:54:39;;;;;;;16.17;11.50;;;1.80;99.90;;;;;;5054910;28;20507;-87
2021/01/01 04:57:07;;;;;;;16.60;11.83;;;2.00;99.90;;;;;;5054793;28;20451;-86
2021/01/01 04:59:33;;;;;;;17.40;12.57;;;1.80;99.90;;;;;;5050641;28;20447;-86
2021/01/01 05:02:00;;;;;;;17.13;12.77;;;;;;;;;;5054718;28;20448;-87
2021/01/01 05:04:27;;;;;;;18.27;12.20;;;;;;;;;;5053703;28;20458;-86
2021/01/01 05:06:56;;;;;;;17.70;12.70;;;1.80;99.90;;;;;;5054739;28;20954;-86
2021/01/01 05:09:22;;;;;;;20.80;13.10;;;;;;;;;;5054584;28;20463;-87
2021/01/01 05:11:49;;;;;;;18.10;12.20;;;1.80;99.90;;;;;;5054142;28;20503;-87
2021/01/01 05:14:16;;;;;;;18.37;12.10;;;2.20;99.90;;;;;;5053749;28;20449;-86
2021/01/01 05:16:52;;;;;;;17.10;12.40;;;2.00;99.90;;;;;;5046888;28;20455;-86
2021/01/01 05:19:18;;;;;;;19.37;12.57;;;;;;;;;;5053341;28;20597;-86
2021/01/01 05:21:45;;;;;;;16.70;12.10;;;;;;;;;;5054623;28;20458;-86
2021/01/01 05:24:16;;;;;;;19.40;12.67;;;1.90;99.90;;;;;;5054396;28;20800;-86
2021/01/01 05:26:48;;;;;;;15.00;11.03;;;2.00;99.90;;;;;;5054114;28;20492;-89
2021/01/01 05:29:21;;;;;;;15.80;11.37;;;1.90;99.90;;;;;;5054272;28;20452;-86
2021/01/01 05:31:49;;;;;;;18.93;12.43;;;2.10;99.90;;;;;;5053942;28;20876;-86
2021/01/01 05:34:16;;;;;;;15.00;11.30;;;2.00;99.90;;;;;;5052956;28;20454;-88
2021/01/01 05:36:44;;;;;;;17.23;12.00;;;2.00;99.90;;;;;;5054119;28;20457;-86
2021/01/01 05:39:23;;;;;;;15.27;11.20;;;2.00;99.90;;;;;;5054115;28;20456;-87
2021/01/01 05:41:51;;;;;;;16.63;12.30;;;2.00;99.90;;;;;;5045785;28;21016;-85
2021/01/01 05:44:19;;;;;;;17.77;12.30;;;2.00;99.90;;;;;;5054198;28;20451;-90
2021/01/01 05:47:03;;;;;;;15.03;11.97;;;2.10;99.90;;;;;;5054202;28;20454;-85
2021/01/01 05:49:32;;;;;;;16.70;11.70;;;2.20;99.90;;;;;;5052884;28;20451;-86
2021/01/01 05:52:10;;;;;;;19.10;12.07;;;2.10;99.90;;;;;;5053824;28;20843;-86
2021/01/01 05:54:38;;;;;;;18.37;12.90;;;1.90;99.90;;;;;;5053943;28;20968;-90
2021/01/01 05:57:06;;;;;;;18.47;12.60;;;2.00;99.90;;;;;;5053965;28;20836;-86
2021/01/01 05:59:38;;;;;;;16.30;11.50;;;2.00;99.90;;;;;;5053831;28;20443;-86
2021/01/01 06:02:07;;;;;;;18.90;13.10;;;1.90;99.90;;;;;;5053846;28;20837;-89
2021/01/01 06:04:34;;;;;;;19.57;12.90;;;;;;;;;;5052537;28;20443;-86
2021/01/01 06:07:02;;;;;;;19.70;13.60;;;2.10;99.90;;;;;;5053831;28;20926;-86
2021/01/01 06:09:30;;;;;;;20.37;12.13;;;1.90;99.90;;;;;;5053626;28;20475;-86
2021/01/01 06:12:02;;;;;;;18.17;12.53;;;2.10;99.90;;;;;;5053596;28;20494;-90
2021/01/01 06:14:34;;;;;;;22.23;14.03;;;1.80;99.90;;;;;;5053559;28;20446;-90
2021/01/01 06:17:21;;;;;;;16.97;11.70;;;2.10;99.90;;;;;;5053604;28;20442;-89
2021/01/01 06:19:52;;;;;;;17.30;11.80;;;2.00;99.90;;;;;;5049777;28;20508;-86
2021/01/01 06:22:20;;;;;;;14.10;10.53;;;1.80;99.90;;;;;;5052978;28;21016;-90
2021/01/01 06:24:48;;;;;;;16.20;10.67;;;1.90;99.90;;;;;;5067670;28;20455;-89
2021/01/01 06:27:15;;;;;;;16.77;10.70;;;2.20;99.90;;;;;;5064595;28;20506;-86
2021/01/01 06:29:46;;;;;;;15.27;10.07;;;2.10;99.90;;;;;;5063347;28;20969;-89
2021/01/01 06:32:13;;;;;;;16.27;10.30;;;;;;;;;;5061770;28;20493;-86
2021/01/01 06:34:40;;;;;;;14.27;9.83;;;2.00;99.90;;;;;;5062237;28;20860;-85
2021/01/01 06:37:07;;;;;;;16.13;10.13;;;2.10;99.90;;;;;;5059393;28;20938;-85
2021/01/01 06:39:41;;;;;;;15.63;9.80;;;1.90;99.90;;;;;;5064588;28;20454;-87
2021/01/01 06:42:09;;;;;;;14.67;8.93;;;2.10;99.90;;;;;;5062666;28;20471;-88
2021/01/01 06:44:38;;;;;;;15.10;9.00;;;2.70;99.90;;;;;;5061672;28;20446;-87
2021/01/01 06:47:06;;;;;;;12.83;8.07;;;2.00;99.90;;;;;;5062047;28;20438;-86
2021/01/01 06:49:37;;;;;;;12.37;8.70;;;1.80;99.90;;;;;;5060579;28;20438;-86
2021/01/01 06:52:12;;;;;;;10.80;8.57;;;1.90;99.90;;;;;;5062013;28;20992;-89
2021/01/01 06:55:01;;;;;;;13.20;8.77;;;2.00;99.90;;;;;;5066876;28;20475;-90
2021/01/01 06:57:29;;;;;;;12.60;9.00;;;1.80;99.90;;;;;;5060794;28;20980;-89
2021/01/01 06:59:57;;;;;;;10.87;8.77;;;2.00;99.90;;;;;;5066482;28;20524;-88
2021/01/01 07:02:26;;;;;;;12.30;8.90;;;1.00;99.90;;;;;;5061944;28;20855;-86
2021/01/01 07:04:54;;;;;;;11.07;8.23;;;1.70;99.90;;;;;;5059383;28;20515;-87
2021/01/01 07:07:44;;;;;;;11.03;8.10;;;1.80;99.90;;;;;;5061068;28;20811;-86
2021/01/01 07:10:15;;;;;;;13.03;8.50;;;1.70;99.90;;;;;;5059528;28;20473;-90
2021/01/01 07:12:42;;;;;;;11.60;8.60;;;2.20;99.90;;;;;;5061099;28;20513;-87
2021/01/01 07:15:32;;;;;;;9.70;7.23;;;2.00;99.90;;;;;;5062034;28;20922;-86
2021/01/01 07:17:59;;;;;;;12.13;8.63;;;1.70;99.90;;;;;;5053670;28;20812;-88
2021/01/01 07:20:30;;;;;;;11.00;8.10;;;1.80;99.90;;;;;;5059527;28;20445;-87
2021/01/01 07:22:59;;;;;;;10.07;8.10;;;2.40;99.90;;;;;;5059721;28;20462;-88
2021/01/01 07:25:36;;;;;;;11.00;7.57;;;1.80;99.90;;;;;;5058554;28;20497;-87
2021/01/01 07:28:05;;;;;;;12.10;7.80;;;2.00;99.90;;;;;;5063483;28;20446;-88
2021/01/01 07:30:35;;;;;;;9.83;7.20;;;1.40;99.90;;;;;;5060432;28;20446;-88
2021/01/01 07:33:02;;;;;;;10.83;6.50;;;1.60;99.90;;;;;;5063258;28;20480;-90
2021/01/01 07:35:29;;;;;;;10.70;7.13;;;2.00;99.90;;;;;;5064735;28;20447;-89
2021/01/01 07:37:56;;;;;;;11.07;7.60;;;1.80;99.90;;;;;;5065012;28;20823;-92
2021/01/01 07:40:23;;;;;;;9.27;6.87;;;2.00;99.90;;;;;;5059948;28;20968;-90
2021/01/01 07:42:50;;;;;;;10.53;6.83;;;1.60;99.90;;;;;;5064632;28;20433;-89
2021/01/01 07:45:18;;;;;;;8.93;6.80;;;2.10;99.90;;;;;;5061456;28;20844;-89
2021/01/01 07:47:45;;;;;;;9.27;5.83;;;2.00;99.90;;;;;;5062388;28;20494;-92
2021/01/01 07:50:18;;;;;;;8.40;5.30;;;2.40;99.90;;;;;;5069467;28;20457;-91
2021/01/01 07:52:46;;;;;;;8.77;5.60;;;2.00;99.90;;;;;;5061717;28;21061;-87
2021/01/01 07:55:21;;;;;;;8.40;5.73;;;1.50;99.90;;;;;;5060838;28;20469;-90
2021/01/01 07:57:50;;;;;;;9.23;5.93;;;1.40;99.90;;;;;;5058033;28;20830;-90
2021/01/01 08:00:18;;;;;;;6.60;4.50;;;1.80;99.90;;;;;;5076082;28;20807;-89
2021/01/01 08:02:45;;;;;;;9.07;6.10;;;2.10;99.90;;;;;;5071831;28;20450;-88
2021/01/01 08:05:14;;;;;;;10.00;5.80;;;2.00;99.90;;;;;;5060762;28;20659;-89
2021/01/01 08:07:41;;;;;;;6.90;4.90;;;;;;;;;;5058880;28;20449;-91
2021/01/01 08:10:08;;;;;;;6.80;5.03;;;2.00;99.90;;;;;;5075903;28;20959;-89
2021/01/01 08:12:35;;;;;;;6.13;4.50;;;1.90;99.90;;;;;;5075949;28;20492;-92
2021/01/01 08:15:02;;;;;;;6.83;5.10;;;1.80;99.90;;;;;;5066746;28;20938;-88
2021/01/01 08:17:32;;;;;;;6.10;4.97;;;;;;;;;;5063441;28;20496;-88
2021/01/01 08:19:59;;;;;;;7.03;4.90;;;2.00;99.90;;;;;;5063577;28;20459;-88
2021/01/01 08:22:30;;;;;;;5.60;4.07;;;2.10;99.90;;;;;;5066772;28;20441;-88
2021/01/01 08:24:57;;;;;;;7.80;4.77;;;0.70;99.90;;;;;;5064929;28;20484;-93
2021/01/01 08:27:26;;;;;;;7.17;4.87;;;2.00;99.90;;;;;;5071992;28;20488;-94
2021/01/01 08:29:54;;;;;;;6.23;4.20;;;2.30;99.90;;;;;;5072350;28;20485;-90
2021/01/01 08:32:24;;;;;;;5.37;3.93;;;2.40;99.90;;;;;;5075402;28;20504;-88
2021/01/01 08:34:52;;;;;;;5.43;4.03;;;2.50;99.90;;;;;;5074780;28;20440;-91
2021/01/01 08:37:19;;;;;;;5.33;3.70;;;3.00;99.90;;;;;;5075807;28;20774;-93
2021/01/01 08:39:46;;;;;;;5.93;3.67;;;2.30;99.90;;;;;;5075582;28;20456;-87
2021/01/01 08:42:21;;;;;;;4.60;3.60;;;2.30;99.90;;;;;;5076364;28;20434;-93
2021/01/01 08:44:47;;;;;;;5.80;3.30;;;2.20;99.90;;;;;;5075940;28;20948;-91
2021/01/01 08:47:14;;;;;;;5.70;3.93;;;2.40;99.90;;;;;;5070092;28;20458;-90
2021/01/01 08:49:41;;;;;;;5.07;4.03;;;2.00;99.90;;;;;;5075338;28;20467;-90
2021/01/01 08:52:12;;;;;;;4.43;3.80;;;3.10;99.90;;;;;;5073137;28;20481;-93
2021/01/01 08:54:39;;;;;;;5.13;3.63;;;2.40;99.90;;;;;;5072341;28;20442;-91
2021/01/01 08:57:05;;;;;;;3.40;3.10;;;2.20;99.90;;;;;;5075869;28;20463;-88
2021/01/01 08:59:32;;;;;;;5.90;3.30;;;2.00;99.90;;;;;;5075484;28;20450;-91
2021/01/01 09:02:03;;;;;;;5.00;3.10;;;;;;;;;;5075488;28;20809;-90
2021/01/01 09:04:30;;;;;;;3.37;2.70;;;2.20;99.90;;;;;;5076683;28;20516;-91
2021/01/01 09:07:02;;;;;;;5.10;4.23;;;2.30;99.90;;;;;;5075896;28;20453;-91
2021/01/01 09:09:30;;;;;;;3.63;3.03;;;2.60;99.90;;;;;;5069954;28;20497;-87
2021/01/01 09:12:12;;;;;;;5.30;3.07;;;2.50;99.90;;;;;;5074797;28;20494;-91
2021/01/01 09:14:47;;;;;;;3.50;2.83;;;2.40;99.90;;;;;;5074813;28;20438;-88
2021/01/01 09:17:13;;;;;;;4.93;3.00;;;2.70;99.90;;;;;;5071592;28;20919;-90
2021/01/01 09:19:40;;;;;;;5.00;2.97;;;2.60;99.90;;;;;;5067283;28;20473;-89
2021/01/01 09:22:15;;;;;;;4.70;3.50;;;2.70;99.90;;;;;;5074715;28;20810;-90
2021/01/01 09:24:42;;;;;;;4.13;2.70;;;2.80;99.90;;;;;;5074307;28;20448;-87
2021/01/01 09:27:08;;;;;;;4.40;2.70;;;2.60;99.90;;;;;;5074703;28;20936;-88
2021/01/01 09:29:35;;;;;;;4.70;3.13;;;2.70;99.90;;;;;;5067037;28;20450;-91
2021/01/01 09:32:01;;;;;;;3.40;2.67;;;;;;;;;;5058199;28;20498;-89
2021/01/01 09:34:27;;;;;;;2.93;2.47;;;2.60;99.90;;;;;;5054364;28;20448;-90
2021/01/01 09:36:54;;;;;;;3.50;2.50;;;;;;;;;;5049629;28;20444;-92
2021/01/01 09:39:21;;;;;;;3.97;2.87;;;2.90;99.90;;;;;;5054858;28;20451;-91
2021/01/01 09:41:48;;;;;;;3.30;2.77;;;1.70;99.90;;;;;;5055060;28;20856;-91
2021/01/01 09:44:15;;;;;;;3.67;2.87;;;;;;;;;;5055188;28;20452;-90
2021/01/01 09:46:42;;;;;;;2.83;2.40;;;2.70;99.90;;;;;;5054365;28;20506;-91
2021/01/01 09:49:08;;;;;;;2.67;2.37;;;2.70;99.90;;;;;;5053917;28;20546;-91
2021/01/01 09:51:35;;;;;;;3.03;2.50;;;;;;;;;;5050213;28;20514;-92
2021/01/01 09:54:02;;;;;;;3.07;2.63;;;;;;;;;;5054808;28;20451;-92
2021/01/01 09:56:36;;;;;;;3.60;2.90;;;2.70;99.90;;;;;;5054405;28;20456;-89
2021/01/01 09:59:02;;;;;;;6.03;3.30;;;3.10;99.90;;;;;;5053234;28;20508;-88
2021/01/01 10:01:29;;;;;;;3.23;2.37;;;3.10;99.90;;;;;;5054259;28;20472;-88
2021/01/01 10:03:56;;;;;;;3.03;2.47;;;3.10;99.90;;;;;;5052908;28;20454;-88
2021/01/01 10:06:22;;;;;;;3.43;2.80;;;3.20;99.90;;;;;;5049624;28;20453;-93
2021/01/01 10:08:48;;;;;;;3.87;2.70;;;3.00;99.90;;;;;;5054022;28;20442;-88
2021/01/01 10:11:15;;;;;;;4.00;2.43;;;3.40;99.90;;;;;;5053862;28;20849;-88
2021/01/01 10:13:42;;;;;;;3.00;2.53;;;3.00;99.90;;;;;;5053938;28;20792;-89
2021/01/01 10:16:10;;;;;;;2.70;2.20;;;3.30;99.90;;;;;;5053786;28;20451;-90
2021/01/01 10:18:37;;;;;;;2.57;1.97;;;3.40;99.90;;;;;;5052685;28;20444;-89
2021/01/01 10:21:03;;;;;;;2.63;2.27;;;3.40;99.90;;;;;;5053715;28;20460;-89
2021/01/01 10:23:30;;;;;;;2.60;2.30;;;;;;;;;;5053681;28;20454;-89
2021/01/01 10:25:56;;;;;;;2.83;1.90;;;3.30;99.90;;;;;;5053578;28;20497;-90
2021/01/01 10:28:22;;;;;;;3.70;2.47;;;3.30;99.90;;;;;;5053570;28;20819;-89
2021/01/01 10:30:49;;;;;;;2.27;2.07;;;2.60;99.90;;;;;;5042164;28;20471;-91
2021/01/01 10:33:16;;;;;;;2.37;2.07;;;;;;;;;;5047270;28;20498;-91
2021/01/01 10:35:43;;;;;;;3.50;2.40;;;;;;;;;;5053493;28;20451;-91
2021/01/01 10:38:09;;;;;;;3.60;2.47;;;;;;;;;;5053345;28;20455;-90
2021/01/01 10:40:35;;;;;;;2.60;2.03;;;3.10;99.90;;;;;;5053424;28;20848;-89
2021/01/01 10:43:02;;;;;;;3.10;2.40;;;;;;;;;;5046616;28;20451;-91
2021/01/01 10:45:28;;;;;;;3.73;2.93;;;3.60;99.90;;;;;;5053328;28;20447;-89
2021/01/01 10:47:56;;;;;;;2.97;2.57;;;3.20;99.90;;;;;;5052303;28;20451;-92
2021/01/01 10:50:23;;;;;;;3.07;2.80;;;;;;;;;;5052402;28;20461;-92
2021/01/01 10:52:49;;;;;;;4.53;2.90;;;;;;;;;;5053463;28;20852;-93
2021/01/01 10:55:16;;;;;;;2.80;2.10;;;;;;;;;;5053193;28;20447;-89
2021/01/01 10:57:42;;;;;;;3.87;2.63;;;;;;;;;;5052923;28;20461;-85
2021/01/01 11:00:10;;;;;;;4.77;3.23;;;3.90;99.90;;;;;;5053244;28;20443;-90
2021/01/01 11:02:36;;;;;;;3.10;2.33;;;3.60;99.90;;;;;;5052271;28;20917;-87
2021/01/01 11:05:04;;;;;;;3.67;2.57;;;3.50;99.90;;;;;;5053573;28;20453;-87
2021/01/01 11:07:31;;;;;;;2.60;2.03;;;3.50;99.90;;;;;;5058474;28;20482;-88
2021/01/01 11:09:57;;;;;;;2.93;2.63;;;3.30;99.90;;;;;;5069505;28;20957;-88
2021/01/01 11:12:27;;;;;;;3.07;2.27;;;;;;;;;;5068047;28;20493;-86
2021/01/01 11:15:17;;;;;;;3.77;3.00;;;;;;;;;;5076358;28;20537;-89
2021/01/01 12:21:46;;;;;;;5.03;3.43;;;3.50;99.90;;;;;;5056005;28;20433;-91
2021/01/01 12:24:37;;;;;;;5.33;3.37;;;3.50;99.90;;;;;;5051985;28;20562;-92
2021/01/01 12:27:04;;;;;;;4.70;3.50;;;3.70;99.90;;;;;;5056493;28;20858;-91
2021/01/01 12:29:30;;;;;;;5.83;4.00;;;3.90;99.90;;;;;;5055600;28;20459;-88
2021/01/01 12:32:01;;;;;;;5.67;4.47;;;3.70;99.90;;;;;;5055491;28;20498;-89
2021/01/01 12:34:28;;;;;;;4.23;3.63;;;;;;;;;;5057796;28;20473;-93
2021/01/01 12:36:54;;;;;;;4.27;3.13;;;4.00;99.90;;;;;;5056970;28;20470;-92
2021/01/01 12:39:21;;;;;;;4.23;3.00;;;;;;;;;;5057229;28;20945;-90
2021/01/01 12:41:47;;;;;;;5.67;3.30;;;3.60;99.90;;;;;;5055837;28;20529;-87
2021/01/01 12:44:15;;;;;;;7.30;2.80;;;3.80;99.90;;;;;;5055218;28;20450;-87
2021/01/01 12:46:42;;;;;;;4.10;3.20;;;;;;;;;;5054713;28;20540;-91
2021/01/01 12:49:08;;;;;;;3.87;3.20;;;3.80;99.90;;;;;;5053964;28;20542;-87
2021/01/01 12:51:34;;;;;;;5.27;3.97;;;3.70;99.90;;;;;;5052821;28;20492;-88
2021/01/01 12:54:01;;;;;;;10.17;7.73;;;3.20;99.90;;;;;;5062759;28;20431;-93
2021/01/01 12:56:27;;;;;;;4.17;3.50;;;;;;;;;;5056492;28;20448;-92
2021/01/01 12:58:54;;;;;;;4.40;3.17;;;3.80;99.90;;;;;;5055917;28;20436;-92
2021/01/01 13:01:21;;;;;;;3.43;2.77;;;3.80;99.90;;;;;;5049829;28;20466;-92
2021/01/01 13:03:48;;;;;;;4.10;3.47;;;3.90;99.90;;;;;;5055242;28;20945;-90
2021/01/01 13:06:17;;;;;;;4.40;3.60;;;3.60;99.90;;;;;;5055808;28;20777;-89
2021/01/01 13:08:44;;;;;;;4.77;3.23;;;;;;;;;;5056096;28;20492;-88
2021/01/01 13:11:10;;;;;;;4.40;3.43;;;3.90;99.90;;;;;;5054731;28;20451;-89
2021/01/01 13:13:36;;;;;;;4.60;3.37;;;4.10;99.90;;;;;;5052441;28;20456;-88
2021/01/01 13:16:03;;;;;;;4.30;3.30;;;3.70;99.90;;;;;;5054811;28;20451;-90
2021/01/01 13:18:31;;;;;;;3.83;2.80;;;3.90;99.90;;;;;;5016002;28;20931;-90
2021/01/01 13:20:58;;;;;;;3.10;2.50;;;3.90;99.90;;;;;;5054567;28;20459;-88
2021/01/01 13:23:24;;;;;;;3.50;2.90;;;;;;;;;;5054239;28;20454;-87
2021/01/01 13:25:51;;;;;;;5.10;3.43;;;4.10;99.90;;;;;;5053679;28;20481;-88
2021/01/01 13:28:17;;;;;;;3.37;2.97;;;4.10;99.90;;;;;;5054459;28;20451;-88
2021/01/01 13:30:43;;;;;;;3.83;3.20;;;4.20;99.90;;;;;;5054371;28;20472;-88
2021/01/01 13:33:10;;;;;;;4.17;3.43;;;4.00;99.90;;;;;;5052388;28;20489;-90
2021/01/01 13:35:37;;;;;;;3.83;3.03;;;4.20;99.90;;;;;;5051089;28;20518;-90
2021/01/01 13:38:03;;;;;;;9.90;3.27;;;4.00;99.90;;;;;;5054248;28;20508;-89
2021/01/01 13:40:29;;;;;;;3.97;3.10;;;3.90;99.90;;;;;;5054254;28;20455;-89
2021/01/01 13:42:55;;;;;;;4.17;3.27;;;4.80;99.90;;;;;;5054209;28;20454;-90
2021/01/01 13:45:22;;;;;;;3.43;2.97;;;4.00;99.90;;;;;;5054464;28;20446;-88
2021/01/01 13:47:48;;;;;;;3.80;2.90;;;;;;;;;;5053041;28;20783;-90
2021/01/01 13:50:15;;;;;;;3.30;3.00;;;4.40;99.90;;;;;;5054290;28;20454;-88
2021/01/01 13:52:42;;;;;;;3.50;3.10;;;4.40;99.90;;;;;;5053904;28;20542;-88
2021/01/01 13:55:09;;;;;;;3.67;3.10;;;4.80;99.90;;;;;;5053945;28;20508;-89
2021/01/01 13:57:35;;;;;;;3.93;3.00;;;5.30;99.90;;;;;;5051665;28;20453;-88
2021/01/01 14:00:01;;;;;;;3.90;3.40;;;5.10;99.90;;;;;;5053567;28;20450;-88
2021/01/01 14:02:28;;;;;;;3.33;2.97;;;5.10;99.90;;;;;;5050567;28;20455;-88
2021/01/01 14:04:54;;;;;;;3.10;2.73;;;4.80;99.90;;;;;;5053163;28;20458;-90
2021/01/01 14:07:20;;;;;;;4.97;3.33;;;;;;;;;;5054016;28;20452;-88
2021/01/01 14:09:48;;;;;;;3.63;2.67;;;4.60;99.90;;;;;;5053775;28;20460;-88
2021/01/01 14:12:14;;;;;;;4.37;2.83;;;4.40;99.90;;;;;;5053534;28;20490;-87
2021/01/01 14:14:41;;;;;;;3.03;2.40;;;;;;;;;;5053392;28;20455;-90
2021/01/01 14:17:07;;;;;;;3.30;2.97;;;4.10;99.90;;;;;;5053338;28;20930;-88